Time,TemperatureF,DewpointF,PressureIn,WindDirection,WindDirectionDegrees,WindSpeedMPH,WindSpeedGustMPH,Humidity,HourlyPrecipIn,Conditions,Clouds,dailyrainin,SoftwareType,DateUTC
2013-04-07 00:04:00,39.2,35.1,29.72,West,270,4.2,-999.0,85,-99.99,,,0.00,Acu-Link.com,2013-04-07 06:04:00,
2013-04-07 00:19:00,39.2,35.1,29.72,WNW,292,2.2,-999.0,85,-99.99,,,0.00,Acu-Link.com,2013-04-07 06:19:00,
2013-04-07 00:35:00,39.0,35.5,29.74,SSE,157,1.7,-999.0,87,-99.99,,,0.00,Acu-Link.com,2013-04-07 06:35:00,
2013-04-07 00:50:00,37.2,36.7,29.72,North,0,3.7,-999.0,98,-99.99,,,0.00,Acu-Link.com,2013-04-07 06:50:00,
2013-04-07 01:05:00,36.1,35.6,29.74,North,0,4.7,-999.0,98,-99.99,,,0.00,Acu-Link.com,2013-04-07 07:05:00,
2013-04-07 01:20:00,36.3,35.8,29.74,WSW,247,0.0,-999.0,98,-99.99,,,0.00,Acu-Link.com,2013-04-07 07:20:00,
2013-04-07 01:35:00,35.1,34.6,29.73,NE,45,2.2,-999.0,98,-99.99,,,0.01,Acu-Link.com,2013-04-07 07:35:00,
2013-04-07 01:50:00,34.2,33.7,29.72,South,180,0.0,-999.0,98,-99.99,,,0.01,Acu-Link.com,2013-04-07 07:50:00,
2013-04-07 02:06:00,33.4,32.9,29.72,WSW,247,0.0,-999.0,98,-99.99,,,0.01,Acu-Link.com,2013-04-07 08:06:00,
2013-04-07 02:21:00,33.3,32.8,29.72,SSW,202,0.0,-999.0,98,-99.99,,,0.01,Acu-Link.com,2013-04-07 08:21:00,
2013-04-07 03:06:00,33.3,32.8,29.70,SE,135,0.0,-999.0,98,-99.99,,,0.01,Acu-Link.com,2013-04-07 09:06:00,
2013-04-07 03:21:00,33.1,32.6,29.70,East,90,3.7,-999.0,98,-99.99,,,0.01,Acu-Link.com,2013-04-07 09:21:00,
2013-04-07 03:36:00,33.1,32.6,29.69,NNE,22,0.0,-999.0,98,-99.99,,,0.01,Acu-Link.com,2013-04-07 09:36:00,
2013-04-07 03:51:00,33.4,32.9,29.68,ENE,67,0.0,-999.0,98,-99.99,,,0.01,Acu-Link.com,2013-04-07 09:51:00,
2013-04-07 04:07:00,34.0,33.5,29.68,WSW,247,0.0,-999.0,98,-99.99,,,0.01,Acu-Link.com,2013-04-07 10:07:00,
2013-04-07 04:22:00,34.5,34.0,29.68,North,0,0.0,-999.0,98,-99.99,,,0.02,Acu-Link.com,2013-04-07 10:22:00,
2013-04-07 04:37:00,34.7,34.2,29.69,NNW,337,2.7,-999.0,98,-99.99,,,0.02,Acu-Link.com,2013-04-07 10:37:00,
2013-04-07 04:53:00,34.7,34.2,29.68,NW,315,2.2,-999.0,98,-99.99,,,0.02,Acu-Link.com,2013-04-07 10:53:00,
2013-04-07 05:23:00,34.7,34.2,29.68,ESE,112,1.7,-999.0,98,-99.99,,,0.02,Acu-Link.com,2013-04-07 11:23:00,
2013-04-07 05:38:00,34.2,33.7,29.68,NNW,337,0.0,-999.0,98,-99.99,,,0.02,Acu-Link.com,2013-04-07 11:38:00,
2013-04-07 06:09:00,31.6,31.1,29.69,SW,225,0.0,-999.0,98,-99.99,,,0.02,Acu-Link.com,2013-04-07 12:09:00,
2013-04-07 06:39:00,29.3,28.8,29.68,WNW,292,0.0,-999.0,98,-99.99,,,0.02,Acu-Link.com,2013-04-07 12:39:00,
2013-04-07 06:55:00,28.9,28.4,29.69,North,0,0.0,-999.0,98,-99.99,,,0.02,Acu-Link.com,2013-04-07 12:55:00,
2013-04-07 07:10:00,30.4,29.9,29.70,SSW,202,0.0,-999.0,98,-99.99,,,0.02,Acu-Link.com,2013-04-07 13:10:00,
2013-04-07 07:25:00,31.6,31.1,29.69,SW,225,0.0,-999.0,98,-99.99,,,0.02,Acu-Link.com,2013-04-07 13:25:00,
2013-04-07 07:41:00,33.1,32.6,29.69,South,180,0.0,-999.0,98,-99.99,,,0.02,Acu-Link.com,2013-04-07 13:41:00,
2013-04-07 08:12:00,38.5,37.7,29.70,SW,225,2.2,-999.0,97,-99.99,,,0.02,Acu-Link.com,2013-04-07 14:12:00,
2013-04-07 08:27:00,39.2,38.7,29.70,SW,225,2.7,-999.0,98,-99.99,,,0.02,Acu-Link.com,2013-04-07 14:27:00,
2013-04-07 08:42:00,40.3,37.3,29.69,SSW,202,2.7,-999.0,89,-99.99,,,0.02,Acu-Link.com,2013-04-07 14:42:00,
2013-04-07 09:13:00,42.6,38.4,29.69,SW,225,2.7,-999.0,85,-99.99,,,0.02,Acu-Link.com,2013-04-07 15:13:00,
2013-04-07 09:28:00,43.9,37.8,29.68,SSE,157,2.2,-999.0,79,-99.99,,,0.02,Acu-Link.com,2013-04-07 15:28:00,
2013-04-07 09:43:00,45.1,38.0,29.68,South,180,4.2,-999.0,76,-99.99,,,0.02,Acu-Link.com,2013-04-07 15:43:00,
2013-04-07 10:14:00,44.4,35.9,29.67,SSW,202,4.2,-999.0,72,-99.99,,,0.02,Acu-Link.com,2013-04-07 16:14:00,
2013-04-07 10:44:00,45.3,37.2,29.67,South,180,1.1,-999.0,73,-99.99,,,0.02,Acu-Link.com,2013-04-07 16:44:00,
2013-04-07 10:59:00,48.7,37.5,29.66,West,270,3.2,-999.0,65,-99.99,,,0.02,Acu-Link.com,2013-04-07 16:59:00,
2013-04-07 11:30:00,49.6,35.9,29.64,SE,135,4.7,-999.0,59,-99.99,,,0.02,Acu-Link.com,2013-04-07 17:30:00,
2013-04-07 11:45:00,48.6,34.1,29.64,WSW,247,3.2,-999.0,57,-99.99,,,0.02,Acu-Link.com,2013-04-07 17:45:00,
2013-04-07 12:31:00,49.5,33.1,29.62,WNW,292,3.2,-999.0,53,-99.99,,,0.02,Acu-Link.com,2013-04-07 18:31:00,
2013-04-07 12:46:00,53.2,37.0,29.62,SSW,202,6.8,-999.0,54,-99.99,,,0.02,Acu-Link.com,2013-04-07 18:46:00,
2013-04-07 13:02:00,57.2,36.6,29.61,West,270,7.3,-999.0,46,-99.99,,,0.02,Acu-Link.com,2013-04-07 19:02:00,
2013-04-07 13:17:00,54.5,33.0,29.60,SSW,202,9.4,-999.0,44,-99.99,,,0.02,Acu-Link.com,2013-04-07 19:17:00,
2013-04-07 13:33:00,49.6,32.7,29.59,SSW,202,4.7,-999.0,52,-99.99,,,0.02,Acu-Link.com,2013-04-07 19:33:00,
2013-04-07 13:48:00,52.9,32.1,29.58,ESE,112,4.7,-999.0,45,-99.99,,,0.02,Acu-Link.com,2013-04-07 19:48:00,
2013-04-07 14:03:00,56.7,32.0,29.58,SSW,202,9.9,-999.0,39,-99.99,,,0.02,Acu-Link.com,2013-04-07 20:03:00,
2013-04-07 14:18:00,55.2,30.0,29.57,SW,225,9.4,-999.0,38,-99.99,,,0.02,Acu-Link.com,2013-04-07 20:18:00,
2013-04-07 14:33:00,50.4,32.5,29.57,NE,45,10.9,-999.0,50,-99.99,,,0.02,Acu-Link.com,2013-04-07 20:33:00,
2013-04-07 15:34:00,54.3,29.9,29.54,ESE,112,5.8,-999.0,39,-99.99,,,0.02,Acu-Link.com,2013-04-07 21:34:00,
2013-04-07 16:05:00,55.0,34.6,29.55,NNW,337,3.7,-999.0,46,-99.99,,,0.02,Acu-Link.com,2013-04-07 22:05:00,
2013-04-07 16:35:00,55.4,31.5,29.53,NNW,337,4.2,-999.0,40,-99.99,,,0.02,Acu-Link.com,2013-04-07 22:35:00,
2013-04-07 16:50:00,57.2,31.2,29.51,SW,225,6.3,-999.0,37,-99.99,,,0.02,Acu-Link.com,2013-04-07 22:50:00,
2013-04-07 17:06:00,55.2,29.4,29.51,SW,225,2.7,-999.0,37,-99.99,,,0.02,Acu-Link.com,2013-04-07 23:06:00,
2013-04-07 17:37:00,50.2,32.8,29.53,SSW,202,12.5,-999.0,51,-99.99,,,0.02,Acu-Link.com,2013-04-07 23:37:00,
2013-04-07 18:07:00,50.9,29.2,29.53,SW,225,4.2,-999.0,43,-99.99,,,0.02,Acu-Link.com,2013-04-08 00:07:00,
2013-04-07 18:23:00,51.1,28.2,29.53,SSW,202,3.7,-999.0,41,-99.99,,,0.02,Acu-Link.com,2013-04-08 00:23:00,
2013-04-07 18:38:00,48.4,30.1,29.52,SW,225,10.4,-999.0,49,-99.99,,,0.02,Acu-Link.com,2013-04-08 00:38:00,
2013-04-07 18:53:00,48.7,28.9,29.53,WSW,247,5.3,-999.0,46,-99.99,,,0.02,Acu-Link.com,2013-04-08 00:53:00,
2013-04-07 19:08:00,48.7,27.8,29.52,SSW,202,6.3,-999.0,44,-99.99,,,0.02,Acu-Link.com,2013-04-08 01:08:00,
2013-04-07 19:39:00,45.5,28.4,29.53,SW,225,6.8,-999.0,51,-99.99,,,0.02,Acu-Link.com,2013-04-08 01:39:00,
2013-04-07 20:24:00,40.8,27.6,29.52,SW,225,2.2,-999.0,59,-99.99,,,0.02,Acu-Link.com,2013-04-08 02:24:00,
2013-04-07 20:55:00,39.0,27.1,29.52,SSW,202,3.2,-999.0,62,-99.99,,,0.02,Acu-Link.com,2013-04-08 02:55:00,
2013-04-07 21:10:00,38.3,28.0,29.52,SSW,202,3.2,-999.0,66,-99.99,,,0.02,Acu-Link.com,2013-04-08 03:10:00,
2013-04-07 21:25:00,37.8,27.8,29.55,NNW,337,1.1,-999.0,67,-99.99,,,0.02,Acu-Link.com,2013-04-08 03:25:00,
2013-04-07 21:41:00,43.7,27.7,29.53,SW,225,4.2,-999.0,53,-99.99,,,0.02,Acu-Link.com,2013-04-08 03:41:00,
2013-04-07 21:56:00,45.0,28.4,29.53,South,180,4.2,-999.0,52,-99.99,,,0.02,Acu-Link.com,2013-04-08 03:56:00,
2013-04-07 22:11:00,44.2,28.6,29.57,SW,225,8.9,-999.0,54,-99.99,,,0.02,Acu-Link.com,2013-04-08 04:11:00,
2013-04-07 22:26:00,42.6,31.3,29.56,ESE,112,1.1,-999.0,64,-99.99,,,0.02,Acu-Link.com,2013-04-08 04:26:00,
2013-04-07 22:42:00,40.3,31.3,29.55,NNE,22,7.3,-999.0,70,-99.99,,,0.02,Acu-Link.com,2013-04-08 04:42:00,
2013-04-07 22:57:00,39.6,32.3,29.54,NNE,22,5.8,-999.0,75,-99.99,,,0.02,Acu-Link.com,2013-04-08 04:57:00,
2013-04-07 23:12:00,39.0,33.4,29.54,NNE,22,5.3,-999.0,80,-99.99,,,0.02,Acu-Link.com,2013-04-08 05:12:00,
2013-04-07 23:27:00,38.3,34.2,29.56,North,0,4.7,-999.0,85,-99.99,,,0.02,Acu-Link.com,2013-04-08 05:27:00,
2013-04-07 23:42:00,38.5,35.0,29.54,NNE,22,9.4,-999.0,87,-99.99,,,0.02,Acu-Link.com,2013-04-08 05:42:00,
2013-04-07 23:57:00,38.8,34.1,29.54,NNE,22,8.3,-999.0,83,-99.99,,,0.02,Acu-Link.com,2013-04-08 05:57:00,